sensor_id;sensor_type;location;lat;lon;timestamp;P1;durP1;ratioP1;P2;durP2;ratioP2
38693;SDS011;24447;43.460;25.744;2023-07-09T00:02:11;9.82;;;4.63;;
38693;SDS011;24447;43.460;25.744;2023-07-09T00:04:37;11.85;;;4.95;;
38693;SDS011;24447;43.460;25.744;2023-07-09T00:07:03;16.92;;;5.40;;
38693;SDS011;24447;43.460;25.744;2023-07-09T00:09:30;15.70;;;5.97;;
38693;SDS011;24447;43.460;25.744;2023-07-09T00:11:56;14.27;;;5.43;;
38693;SDS011;24447;43.460;25.744;2023-07-09T00:14:23;9.98;;;5.03;;
38693;SDS011;24447;43.460;25.744;2023-07-09T00:16:49;14.50;;;5.82;;
38693;SDS011;24447;43.460;25.744;2023-07-09T00:19:17;11.63;;;5.57;;
38693;SDS011;24447;43.460;25.744;2023-07-09T00:21:45;11.98;;;4.72;;
38693;SDS011;24447;43.460;25.744;2023-07-09T00:24:12;12.35;;;5.50;;
38693;SDS011;24447;43.460;25.744;2023-07-09T00:26:38;12.98;;;5.88;;
38693;SDS011;24447;43.460;25.744;2023-07-09T00:29:15;12.60;;;5.60;;
38693;SDS011;24447;43.460;25.744;2023-07-09T00:31:41;15.55;;;5.13;;
38693;SDS011;24447;43.460;25.744;2023-07-09T00:34:11;17.65;;;5.32;;
38693;SDS011;24447;43.460;25.744;2023-07-09T00:36:38;15.77;;;5.57;;
38693;SDS011;24447;43.460;25.744;2023-07-09T00:39:04;15.43;;;5.18;;
38693;SDS011;24447;43.460;25.744;2023-07-09T00:41:34;12.90;;;5.32;;
38693;SDS011;24447;43.460;25.744;2023-07-09T00:44:16;12.50;;;5.22;;
38693;SDS011;24447;43.460;25.744;2023-07-09T00:49:26;13.98;;;5.40;;
38693;SDS011;24447;43.460;25.744;2023-07-09T00:51:55;12.18;;;5.07;;
38693;SDS011;24447;43.460;25.744;2023-07-09T00:54:24;15.90;;;5.60;;
38693;SDS011;24447;43.460;25.744;2023-07-09T00:56:55;13.63;;;4.70;;
38693;SDS011;24447;43.460;25.744;2023-07-09T00:59:24;15.07;;;4.90;;
38693;SDS011;24447;43.460;25.744;2023-07-09T01:01:54;13.30;;;5.10;;
38693;SDS011;24447;43.460;25.744;2023-07-09T01:04:20;11.70;;;4.72;;
38693;SDS011;24447;43.460;25.744;2023-07-09T01:06:52;14.38;;;4.95;;
38693;SDS011;24447;43.460;25.744;2023-07-09T01:09:19;14.00;;;4.80;;
38693;SDS011;24447;43.460;25.744;2023-07-09T01:11:46;11.82;;;5.80;;
38693;SDS011;24447;43.460;25.744;2023-07-09T01:14:13;13.77;;;5.97;;
38693;SDS011;24447;43.460;25.744;2023-07-09T01:17:03;11.80;;;5.00;;
38693;SDS011;24447;43.460;25.744;2023-07-09T01:19:30;12.40;;;5.07;;
38693;SDS011;24447;43.460;25.744;2023-07-09T01:22:05;13.18;;;5.50;;
38693;SDS011;24447;43.460;25.744;2023-07-09T01:27:16;13.85;;;5.30;;
38693;SDS011;24447;43.460;25.744;2023-07-09T01:29:45;12.68;;;5.20;;
38693;SDS011;24447;43.460;25.744;2023-07-09T01:32:14;12.80;;;5.47;;
38693;SDS011;24447;43.460;25.744;2023-07-09T01:34:43;19.25;;;6.25;;
38693;SDS011;24447;43.460;25.744;2023-07-09T01:37:12;13.95;;;5.50;;
38693;SDS011;24447;43.460;25.744;2023-07-09T01:39:39;13.23;;;5.72;;
38693;SDS011;24447;43.460;25.744;2023-07-09T01:42:06;11.32;;;5.10;;
38693;SDS011;24447;43.460;25.744;2023-07-09T01:44:33;16.00;;;6.03;;
38693;SDS011;24447;43.460;25.744;2023-07-09T01:47:00;12.57;;;5.55;;
38693;SDS011;24447;43.460;25.744;2023-07-09T01:49:29;13.77;;;5.10;;
38693;SDS011;24447;43.460;25.744;2023-07-09T01:51:57;13.23;;;5.32;;
38693;SDS011;24447;43.460;25.744;2023-07-09T01:54:27;10.15;;;4.65;;
38693;SDS011;24447;43.460;25.744;2023-07-09T01:56:54;12.85;;;5.45;;
38693;SDS011;24447;43.460;25.744;2023-07-09T01:59:26;12.40;;;5.55;;
38693;SDS011;24447;43.460;25.744;2023-07-09T02:01:52;18.88;;;5.80;;
38693;SDS011;24447;43.460;25.744;2023-07-09T02:04:22;18.33;;;5.75;;
38693;SDS011;24447;43.460;25.744;2023-07-09T02:06:52;18.70;;;6.10;;
38693;SDS011;24447;43.460;25.744;2023-07-09T02:09:18;14.07;;;6.07;;
38693;SDS011;24447;43.460;25.744;2023-07-09T02:11:44;10.70;;;4.90;;
38693;SDS011;24447;43.460;25.744;2023-07-09T02:14:09;10.82;;;4.63;;
38693;SDS011;24447;43.460;25.744;2023-07-09T02:16:35;15.68;;;5.22;;
38693;SDS011;24447;43.460;25.744;2023-07-09T02:19:01;11.30;;;4.65;;
38693;SDS011;24447;43.460;25.744;2023-07-09T02:21:27;8.88;;;5.13;;
38693;SDS011;24447;43.460;25.744;2023-07-09T02:23:55;18.30;;;5.30;;
38693;SDS011;24447;43.460;25.744;2023-07-09T02:26:20;17.38;;;6.35;;
38693;SDS011;24447;43.460;25.744;2023-07-09T02:28:46;14.93;;;4.93;;
38693;SDS011;24447;43.460;25.744;2023-07-09T02:31:12;11.55;;;5.10;;
38693;SDS011;24447;43.460;25.744;2023-07-09T02:33:40;29.02;;;7.57;;
38693;SDS011;24447;43.460;25.744;2023-07-09T02:36:06;10.60;;;4.90;;
38693;SDS011;24447;43.460;25.744;2023-07-09T02:38:32;13.23;;;5.15;;
38693;SDS011;24447;43.460;25.744;2023-07-09T02:40:59;7.85;;;4.93;;
38693;SDS011;24447;43.460;25.744;2023-07-09T02:43:24;12.48;;;4.72;;
38693;SDS011;24447;43.460;25.744;2023-07-09T02:45:50;14.13;;;4.30;;
38693;SDS011;24447;43.460;25.744;2023-07-09T02:48:16;13.38;;;4.95;;
38693;SDS011;24447;43.460;25.744;2023-07-09T02:50:42;28.15;;;4.93;;
38693;SDS011;24447;43.460;25.744;2023-07-09T02:53:08;17.45;;;5.47;;
38693;SDS011;24447;43.460;25.744;2023-07-09T02:55:34;13.38;;;4.47;;
38693;SDS011;24447;43.460;25.744;2023-07-09T02:58:00;16.25;;;4.78;;
38693;SDS011;24447;43.460;25.744;2023-07-09T03:00:26;8.65;;;4.70;;
38693;SDS011;24447;43.460;25.744;2023-07-09T03:02:52;11.00;;;4.82;;
38693;SDS011;24447;43.460;25.744;2023-07-09T03:05:18;10.60;;;4.45;;
38693;SDS011;24447;43.460;25.744;2023-07-09T03:07:44;22.52;;;4.82;;
38693;SDS011;24447;43.460;25.744;2023-07-09T03:10:10;14.13;;;4.95;;
38693;SDS011;24447;43.460;25.744;2023-07-09T03:12:36;15.90;;;4.53;;
38693;SDS011;24447;43.460;25.744;2023-07-09T03:15:02;14.48;;;5.10;;
38693;SDS011;24447;43.460;25.744;2023-07-09T03:17:28;17.17;;;5.15;;
38693;SDS011;24447;43.460;25.744;2023-07-09T03:19:54;10.15;;;4.60;;
38693;SDS011;24447;43.460;25.744;2023-07-09T03:22:20;11.88;;;5.32;;
38693;SDS011;24447;43.460;25.744;2023-07-09T03:24:46;6.35;;;3.67;;
38693;SDS011;24447;43.460;25.744;2023-07-09T03:27:12;8.10;;;3.80;;
38693;SDS011;24447;43.460;25.744;2023-07-09T03:29:37;11.55;;;4.38;;
38693;SDS011;24447;43.460;25.744;2023-07-09T03:32:03;9.40;;;4.30;;
38693;SDS011;24447;43.460;25.744;2023-07-09T03:34:30;10.32;;;4.50;;
38693;SDS011;24447;43.460;25.744;2023-07-09T03:36:56;10.07;;;4.63;;
38693;SDS011;24447;43.460;25.744;2023-07-09T03:39:21;12.27;;;4.45;;
38693;SDS011;24447;43.460;25.744;2023-07-09T03:41:47;11.98;;;4.82;;
38693;SDS011;24447;43.460;25.744;2023-07-09T03:44:13;34.65;;;9.10;;
38693;SDS011;24447;43.460;25.744;2023-07-09T03:46:39;13.18;;;5.00;;
38693;SDS011;24447;43.460;25.744;2023-07-09T03:49:05;17.77;;;4.78;;
38693;SDS011;24447;43.460;25.744;2023-07-09T03:51:31;12.48;;;4.38;;
38693;SDS011;24447;43.460;25.744;2023-07-09T03:53:57;11.65;;;3.97;;
38693;SDS011;24447;43.460;25.744;2023-07-09T03:56:23;8.63;;;4.32;;
38693;SDS011;24447;43.460;25.744;2023-07-09T03:58:49;13.68;;;3.95;;
38693;SDS011;24447;43.460;25.744;2023-07-09T04:01:15;12.23;;;4.22;;
38693;SDS011;24447;43.460;25.744;2023-07-09T04:03:41;15.75;;;3.67;;
38693;SDS011;24447;43.460;25.744;2023-07-09T04:06:07;7.53;;;3.25;;
38693;SDS011;24447;43.460;25.744;2023-07-09T04:08:33;10.52;;;4.50;;
38693;SDS011;24447;43.460;25.744;2023-07-09T04:10:59;13.70;;;4.68;;
38693;SDS011;24447;43.460;25.744;2023-07-09T04:13:26;13.40;;;4.43;;
38693;SDS011;24447;43.460;25.744;2023-07-09T04:15:53;11.25;;;4.22;;
38693;SDS011;24447;43.460;25.744;2023-07-09T04:18:19;17.77;;;5.32;;
38693;SDS011;24447;43.460;25.744;2023-07-09T04:20:48;12.35;;;4.88;;
38693;SDS011;24447;43.460;25.744;2023-07-09T04:23:15;15.40;;;5.00;;
38693;SDS011;24447;43.460;25.744;2023-07-09T04:25:42;12.43;;;4.20;;
38693;SDS011;24447;43.460;25.744;2023-07-09T04:28:07;9.43;;;3.85;;
38693;SDS011;24447;43.460;25.744;2023-07-09T04:30:34;10.30;;;3.80;;
38693;SDS011;24447;43.460;25.744;2023-07-09T04:32:59;13.30;;;4.22;;
38693;SDS011;24447;43.460;25.744;2023-07-09T04:35:25;8.95;;;3.63;;
38693;SDS011;24447;43.460;25.744;2023-07-09T04:37:51;9.20;;;3.95;;
38693;SDS011;24447;43.460;25.744;2023-07-09T04:40:17;12.50;;;4.00;;
38693;SDS011;24447;43.460;25.744;2023-07-09T04:42:44;10.13;;;3.58;;
38693;SDS011;24447;43.460;25.744;2023-07-09T04:45:11;9.25;;;3.72;;
38693;SDS011;24447;43.460;25.744;2023-07-09T04:47:38;17.65;;;5.70;;
38693;SDS011;24447;43.460;25.744;2023-07-09T04:50:05;11.00;;;4.07;;
38693;SDS011;24447;43.460;25.744;2023-07-09T04:52:32;10.63;;;3.95;;
38693;SDS011;24447;43.460;25.744;2023-07-09T04:54:59;10.05;;;4.82;;
38693;SDS011;24447;43.460;25.744;2023-07-09T04:57:26;8.43;;;4.35;;
38693;SDS011;24447;43.460;25.744;2023-07-09T04:59:52;13.07;;;4.82;;
38693;SDS011;24447;43.460;25.744;2023-07-09T05:02:18;8.35;;;4.20;;
38693;SDS011;24447;43.460;25.744;2023-07-09T05:04:44;10.93;;;5.13;;
38693;SDS011;24447;43.460;25.744;2023-07-09T05:07:10;10.40;;;4.35;;
38693;SDS011;24447;43.460;25.744;2023-07-09T05:09:36;9.23;;;4.72;;
38693;SDS011;24447;43.460;25.744;2023-07-09T05:12:02;10.55;;;5.28;;
38693;SDS011;24447;43.460;25.744;2023-07-09T05:14:28;11.65;;;5.15;;
38693;SDS011;24447;43.460;25.744;2023-07-09T05:16:54;9.15;;;4.97;;
38693;SDS011;24447;43.460;25.744;2023-07-09T05:19:20;20.15;;;6.60;;
38693;SDS011;24447;43.460;25.744;2023-07-09T05:21:46;11.75;;;5.10;;
38693;SDS011;24447;43.460;25.744;2023-07-09T05:24:12;11.73;;;5.30;;
38693;SDS011;24447;43.460;25.744;2023-07-09T05:26:38;10.98;;;4.93;;
38693;SDS011;24447;43.460;25.744;2023-07-09T05:29:04;11.63;;;5.38;;
38693;SDS011;24447;43.460;25.744;2023-07-09T05:31:30;14.40;;;6.00;;
38693;SDS011;24447;43.460;25.744;2023-07-09T05:33:58;11.30;;;5.10;;
38693;SDS011;24447;43.460;25.744;2023-07-09T05:36:25;13.43;;;6.65;;
38693;SDS011;24447;43.460;25.744;2023-07-09T05:38:52;19.85;;;7.80;;
38693;SDS011;24447;43.460;25.744;2023-07-09T05:41:18;14.43;;;7.32;;
38693;SDS011;24447;43.460;25.744;2023-07-09T05:43:44;21.17;;;10.55;;
38693;SDS011;24447;43.460;25.744;2023-07-09T05:46:11;16.67;;;7.53;;
38693;SDS011;24447;43.460;25.744;2023-07-09T05:48:38;15.77;;;6.75;;
38693;SDS011;24447;43.460;25.744;2023-07-09T05:51:04;16.52;;;7.35;;
38693;SDS011;24447;43.460;25.744;2023-07-09T05:53:30;13.70;;;6.50;;
38693;SDS011;24447;43.460;25.744;2023-07-09T05:55:58;16.27;;;7.22;;
38693;SDS011;24447;43.460;25.744;2023-07-09T05:58:24;11.43;;;6.60;;
38693;SDS011;24447;43.460;25.744;2023-07-09T06:00:53;14.85;;;7.05;;
38693;SDS011;24447;43.460;25.744;2023-07-09T06:03:21;14.18;;;7.53;;
38693;SDS011;24447;43.460;25.744;2023-07-09T06:05:48;14.52;;;7.75;;
38693;SDS011;24447;43.460;25.744;2023-07-09T06:08:24;15.05;;;6.85;;
38693;SDS011;24447;43.460;25.744;2023-07-09T06:10:52;14.15;;;7.20;;
38693;SDS011;24447;43.460;25.744;2023-07-09T06:13:22;14.55;;;6.90;;
38693;SDS011;24447;43.460;25.744;2023-07-09T06:15:48;15.23;;;7.07;;
38693;SDS011;24447;43.460;25.744;2023-07-09T06:18:15;15.35;;;7.28;;
38693;SDS011;24447;43.460;25.744;2023-07-09T06:20:45;14.48;;;6.95;;
38693;SDS011;24447;43.460;25.744;2023-07-09T06:23:12;14.13;;;7.20;;
38693;SDS011;24447;43.460;25.744;2023-07-09T06:25:38;14.25;;;6.80;;
38693;SDS011;24447;43.460;25.744;2023-07-09T06:28:04;10.93;;;6.03;;
38693;SDS011;24447;43.460;25.744;2023-07-09T06:30:30;10.85;;;6.55;;
38693;SDS011;24447;43.460;25.744;2023-07-09T06:32:56;11.48;;;6.53;;
38693;SDS011;24447;43.460;25.744;2023-07-09T06:35:22;13.32;;;7.07;;
38693;SDS011;24447;43.460;25.744;2023-07-09T06:37:48;13.75;;;5.57;;
38693;SDS011;24447;43.460;25.744;2023-07-09T06:40:13;14.80;;;6.47;;
38693;SDS011;24447;43.460;25.744;2023-07-09T06:42:39;14.90;;;6.70;;
38693;SDS011;24447;43.460;25.744;2023-07-09T06:45:06;13.80;;;7.25;;
38693;SDS011;24447;43.460;25.744;2023-07-09T06:47:32;17.92;;;7.57;;
38693;SDS011;24447;43.460;25.744;2023-07-09T06:49:58;14.75;;;6.90;;
38693;SDS011;24447;43.460;25.744;2023-07-09T06:52:24;23.58;;;8.63;;
38693;SDS011;24447;43.460;25.744;2023-07-09T06:54:49;16.15;;;7.53;;
38693;SDS011;24447;43.460;25.744;2023-07-09T06:57:15;14.05;;;6.50;;
38693;SDS011;24447;43.460;25.744;2023-07-09T06:59:41;17.15;;;7.32;;
38693;SDS011;24447;43.460;25.744;2023-07-09T07:02:08;14.13;;;6.80;;
38693;SDS011;24447;43.460;25.744;2023-07-09T07:04:34;14.43;;;6.65;;
38693;SDS011;24447;43.460;25.744;2023-07-09T07:07:00;11.98;;;6.15;;
38693;SDS011;24447;43.460;25.744;2023-07-09T07:09:25;23.30;;;7.15;;
38693;SDS011;24447;43.460;25.744;2023-07-09T07:11:53;14.32;;;6.60;;
38693;SDS011;24447;43.460;25.744;2023-07-09T07:14:18;16.98;;;6.30;;
38693;SDS011;24447;43.460;25.744;2023-07-09T07:16:44;9.90;;;5.30;;
38693;SDS011;24447;43.460;25.744;2023-07-09T07:19:10;10.32;;;4.82;;
38693;SDS011;24447;43.460;25.744;2023-07-09T07:21:36;12.40;;;5.43;;
38693;SDS011;24447;43.460;25.744;2023-07-09T07:24:02;11.75;;;5.75;;
38693;SDS011;24447;43.460;25.744;2023-07-09T07:26:28;10.20;;;4.97;;
38693;SDS011;24447;43.460;25.744;2023-07-09T07:28:54;9.82;;;4.40;;
38693;SDS011;24447;43.460;25.744;2023-07-09T07:31:20;11.07;;;4.78;;
38693;SDS011;24447;43.460;25.744;2023-07-09T07:33:46;7.95;;;4.35;;
38693;SDS011;24447;43.460;25.744;2023-07-09T07:36:12;13.23;;;4.63;;
38693;SDS011;24447;43.460;25.744;2023-07-09T07:38:38;8.10;;;4.35;;
38693;SDS011;24447;43.460;25.744;2023-07-09T07:41:04;6.38;;;4.18;;
38693;SDS011;24447;43.460;25.744;2023-07-09T07:43:30;6.43;;;3.38;;
38693;SDS011;24447;43.460;25.744;2023-07-09T07:45:56;8.38;;;4.28;;
38693;SDS011;24447;43.460;25.744;2023-07-09T07:48:22;8.32;;;4.20;;
38693;SDS011;24447;43.460;25.744;2023-07-09T07:50:48;14.90;;;4.18;;
38693;SDS011;24447;43.460;25.744;2023-07-09T07:53:14;9.93;;;4.03;;
38693;SDS011;24447;43.460;25.744;2023-07-09T07:55:41;8.25;;;4.15;;
38693;SDS011;24447;43.460;25.744;2023-07-09T07:58:11;9.48;;;4.25;;
38693;SDS011;24447;43.460;25.744;2023-07-09T08:00:38;5.25;;;3.22;;
38693;SDS011;24447;43.460;25.744;2023-07-09T08:03:05;6.38;;;4.03;;
38693;SDS011;24447;43.460;25.744;2023-07-09T08:05:31;9.27;;;4.20;;
38693;SDS011;24447;43.460;25.744;2023-07-09T08:07:57;6.05;;;3.40;;
38693;SDS011;24447;43.460;25.744;2023-07-09T08:10:23;9.45;;;3.97;;
38693;SDS011;24447;43.460;25.744;2023-07-09T08:12:49;6.50;;;3.53;;
38693;SDS011;24447;43.460;25.744;2023-07-09T08:15:15;7.47;;;4.30;;
38693;SDS011;24447;43.460;25.744;2023-07-09T08:17:42;6.78;;;3.50;;
38693;SDS011;24447;43.460;25.744;2023-07-09T08:20:08;8.40;;;3.55;;
38693;SDS011;24447;43.460;25.744;2023-07-09T08:22:34;6.30;;;3.33;;
38693;SDS011;24447;43.460;25.744;2023-07-09T08:25:00;5.70;;;3.22;;
38693;SDS011;24447;43.460;25.744;2023-07-09T08:27:26;6.78;;;3.63;;
38693;SDS011;24447;43.460;25.744;2023-07-09T08:29:52;6.25;;;3.38;;
38693;SDS011;24447;43.460;25.744;2023-07-09T08:32:18;8.98;;;3.50;;
38693;SDS011;24447;43.460;25.744;2023-07-09T08:34:44;8.00;;;3.10;;
38693;SDS011;24447;43.460;25.744;2023-07-09T08:37:10;10.05;;;3.35;;
38693;SDS011;24447;43.460;25.744;2023-07-09T08:39:36;8.93;;;2.80;;
38693;SDS011;24447;43.460;25.744;2023-07-09T08:42:04;7.82;;;2.55;;
38693;SDS011;24447;43.460;25.744;2023-07-09T08:47:10;6.55;;;2.25;;
38693;SDS011;24447;43.460;25.744;2023-07-09T08:52:31;8.77;;;4.07;;
38693;SDS011;24447;43.460;25.744;2023-07-09T08:54:59;5.13;;;3.22;;
38693;SDS011;24447;43.460;25.744;2023-07-09T08:57:32;3.10;;;2.35;;
38693;SDS011;24447;43.460;25.744;2023-07-09T09:00:49;12.18;;;3.13;;
38693;SDS011;24447;43.460;25.744;2023-07-09T09:02:50;8.00;;;2.60;;
38693;SDS011;24447;43.460;25.744;2023-07-09T09:05:19;3.97;;;2.60;;
38693;SDS011;24447;43.460;25.744;2023-07-09T09:07:48;5.13;;;2.67;;
38693;SDS011;24447;43.460;25.744;2023-07-09T09:10:21;4.82;;;2.45;;
38693;SDS011;24447;43.460;25.744;2023-07-09T09:13:11;6.20;;;3.10;;
38693;SDS011;24447;43.460;25.744;2023-07-09T09:15:39;4.32;;;3.13;;
38693;SDS011;24447;43.460;25.744;2023-07-09T09:18:12;5.20;;;2.67;;
38693;SDS011;24447;43.460;25.744;2023-07-09T09:23:36;4.20;;;2.92;;
38693;SDS011;24447;43.460;25.744;2023-07-09T09:26:06;5.78;;;2.92;;
38693;SDS011;24447;43.460;25.744;2023-07-09T09:28:38;7.15;;;3.08;;
38693;SDS011;24447;43.460;25.744;2023-07-09T09:31:04;5.78;;;2.95;;
38693;SDS011;24447;43.460;25.744;2023-07-09T09:33:42;8.05;;;3.10;;
38693;SDS011;24447;43.460;25.744;2023-07-09T09:36:16;6.13;;;3.15;;
38693;SDS011;24447;43.460;25.744;2023-07-09T09:38:50;7.55;;;2.90;;
38693;SDS011;24447;43.460;25.744;2023-07-09T09:41:21;6.50;;;2.90;;
38693;SDS011;24447;43.460;25.744;2023-07-09T09:43:49;4.10;;;2.55;;
38693;SDS011;24447;43.460;25.744;2023-07-09T09:46:18;5.45;;;2.88;;
38693;SDS011;24447;43.460;25.744;2023-07-09T09:48:46;7.07;;;3.22;;
38693;SDS011;24447;43.460;25.744;2023-07-09T09:51:14;7.05;;;3.70;;
38693;SDS011;24447;43.460;25.744;2023-07-09T09:53:40;5.40;;;3.25;;
38693;SDS011;24447;43.460;25.744;2023-07-09T09:56:15;6.40;;;3.15;;
38693;SDS011;24447;43.460;25.744;2023-07-09T09:58:44;6.07;;;3.10;;
38693;SDS011;24447;43.460;25.744;2023-07-09T10:01:14;4.38;;;3.00;;
38693;SDS011;24447;43.460;25.744;2023-07-09T10:03:41;4.05;;;2.97;;
38693;SDS011;24447;43.460;25.744;2023-07-09T10:06:15;4.05;;;2.55;;
38693;SDS011;24447;43.460;25.744;2023-07-09T10:09:05;8.05;;;3.97;;
38693;SDS011;24447;43.460;25.744;2023-07-09T10:11:56;6.53;;;3.50;;
38693;SDS011;24447;43.460;25.744;2023-07-09T10:19:36;6.38;;;3.20;;
38693;SDS011;24447;43.460;25.744;2023-07-09T10:22:57;9.23;;;3.60;;
38693;SDS011;24447;43.460;25.744;2023-07-09T10:39:53;6.18;;;3.50;;
38693;SDS011;24447;43.460;25.744;2023-07-09T10:45:10;10.00;;;3.60;;
38693;SDS011;24447;43.460;25.744;2023-07-09T10:47:43;6.68;;;3.25;;
38693;SDS011;24447;43.460;25.744;2023-07-09T10:50:14;4.80;;;2.83;;
38693;SDS011;24447;43.460;25.744;2023-07-09T10:52:44;6.78;;;2.90;;
38693;SDS011;24447;43.460;25.744;2023-07-09T11:00:42;9.40;;;3.60;;
38693;SDS011;24447;43.460;25.744;2023-07-09T11:03:12;17.15;;;4.15;;
38693;SDS011;24447;43.460;25.744;2023-07-09T11:05:41;6.10;;;3.28;;
38693;SDS011;24447;43.460;25.744;2023-07-09T11:08:12;10.20;;;3.30;;
38693;SDS011;24447;43.460;25.744;2023-07-09T11:10:40;5.05;;;2.67;;
38693;SDS011;24447;43.460;25.744;2023-07-09T11:13:12;5.93;;;3.50;;
38693;SDS011;24447;43.460;25.744;2023-07-09T11:15:42;4.55;;;3.10;;
38693;SDS011;24447;43.460;25.744;2023-07-09T11:18:11;8.48;;;3.38;;
38693;SDS011;24447;43.460;25.744;2023-07-09T11:20:43;6.35;;;3.42;;
38693;SDS011;24447;43.460;25.744;2023-07-09T11:23:23;6.10;;;3.45;;
38693;SDS011;24447;43.460;25.744;2023-07-09T11:28:45;7.43;;;3.45;;
38693;SDS011;24447;43.460;25.744;2023-07-09T11:31:18;7.05;;;3.63;;
38693;SDS011;24447;43.460;25.744;2023-07-09T11:33:49;6.57;;;3.75;;
38693;SDS011;24447;43.460;25.744;2023-07-09T11:36:25;7.03;;;3.10;;
38693;SDS011;24447;43.460;25.744;2023-07-09T11:38:53;6.75;;;3.35;;
38693;SDS011;24447;43.460;25.744;2023-07-09T11:41:27;9.40;;;3.25;;
38693;SDS011;24447;43.460;25.744;2023-07-09T11:44:00;9.15;;;3.50;;
38693;SDS011;24447;43.460;25.744;2023-07-09T11:46:30;5.85;;;3.15;;
38693;SDS011;24447;43.460;25.744;2023-07-09T11:48:57;5.38;;;3.10;;
38693;SDS011;24447;43.460;25.744;2023-07-09T11:51:28;8.30;;;2.90;;
38693;SDS011;24447;43.460;25.744;2023-07-09T11:54:00;6.28;;;2.75;;
38693;SDS011;24447;43.460;25.744;2023-07-09T11:56:26;3.92;;;2.20;;
38693;SDS011;24447;43.460;25.744;2023-07-09T11:58:56;4.43;;;2.67;;
38693;SDS011;24447;43.460;25.744;2023-07-09T12:01:23;3.90;;;2.53;;
38693;SDS011;24447;43.460;25.744;2023-07-09T12:03:51;3.25;;;2.42;;
38693;SDS011;24447;43.460;25.744;2023-07-09T12:11:33;4.70;;;2.75;;
38693;SDS011;24447;43.460;25.744;2023-07-09T12:14:10;3.53;;;2.55;;
38693;SDS011;24447;43.460;25.744;2023-07-09T12:16:41;6.97;;;2.42;;
38693;SDS011;24447;43.460;25.744;2023-07-09T12:19:10;6.40;;;3.15;;
38693;SDS011;24447;43.460;25.744;2023-07-09T12:21:38;5.38;;;3.25;;
38693;SDS011;24447;43.460;25.744;2023-07-09T12:24:21;5.07;;;2.70;;
38693;SDS011;24447;43.460;25.744;2023-07-09T12:26:53;2.80;;;2.35;;
38693;SDS011;24447;43.460;25.744;2023-07-09T12:29:34;9.13;;;3.70;;
38693;SDS011;24447;43.460;25.744;2023-07-09T12:32:14;7.90;;;3.03;;
38693;SDS011;24447;43.460;25.744;2023-07-09T12:34:42;4.93;;;3.10;;
38693;SDS011;24447;43.460;25.744;2023-07-09T12:39:38;5.80;;;2.88;;
38693;SDS011;24447;43.460;25.744;2023-07-09T12:42:04;9.90;;;2.97;;
38693;SDS011;24447;43.460;25.744;2023-07-09T12:44:31;8.13;;;2.83;;
38693;SDS011;24447;43.460;25.744;2023-07-09T12:47:00;6.90;;;3.50;;
38693;SDS011;24447;43.460;25.744;2023-07-09T12:49:28;10.27;;;3.20;;
38693;SDS011;24447;43.460;25.744;2023-07-09T12:51:57;5.90;;;3.17;;
38693;SDS011;24447;43.460;25.744;2023-07-09T12:54:23;8.95;;;3.10;;
38693;SDS011;24447;43.460;25.744;2023-07-09T12:56:53;9.07;;;3.53;;
38693;SDS011;24447;43.460;25.744;2023-07-09T13:04:32;4.05;;;2.85;;
38693;SDS011;24447;43.460;25.744;2023-07-09T13:07:03;5.18;;;2.92;;
38693;SDS011;24447;43.460;25.744;2023-07-09T13:09:30;10.55;;;3.60;;
38693;SDS011;24447;43.460;25.744;2023-07-09T13:11:57;5.85;;;2.75;;
38693;SDS011;24447;43.460;25.744;2023-07-09T13:14:25;5.43;;;3.10;;
38693;SDS011;24447;43.460;25.744;2023-07-09T13:16:52;8.68;;;3.13;;
38693;SDS011;24447;43.460;25.744;2023-07-09T13:19:18;6.13;;;2.72;;
38693;SDS011;24447;43.460;25.744;2023-07-09T13:21:44;8.88;;;3.13;;
38693;SDS011;24447;43.460;25.744;2023-07-09T13:24:22;3.97;;;2.75;;
38693;SDS011;24447;43.460;25.744;2023-07-09T13:26:49;8.35;;;2.60;;
38693;SDS011;24447;43.460;25.744;2023-07-09T13:29:15;8.75;;;2.90;;
38693;SDS011;24447;43.460;25.744;2023-07-09T13:31:44;6.88;;;2.75;;
38693;SDS011;24447;43.460;25.744;2023-07-09T13:34:26;6.45;;;2.60;;
38693;SDS011;24447;43.460;25.744;2023-07-09T13:36:53;8.80;;;3.03;;
38693;SDS011;24447;43.460;25.744;2023-07-09T13:39:23;7.50;;;2.72;;
38693;SDS011;24447;43.460;25.744;2023-07-09T13:41:49;4.25;;;2.78;;
38693;SDS011;24447;43.460;25.744;2023-07-09T13:44:20;6.10;;;2.63;;
38693;SDS011;24447;43.460;25.744;2023-07-09T13:46:47;3.93;;;2.60;;
38693;SDS011;24447;43.460;25.744;2023-07-09T13:49:14;5.72;;;2.72;;
38693;SDS011;24447;43.460;25.744;2023-07-09T13:51:43;5.63;;;2.35;;
38693;SDS011;24447;43.460;25.744;2023-07-09T13:54:15;7.18;;;3.28;;
38693;SDS011;24447;43.460;25.744;2023-07-09T13:56:46;5.32;;;2.72;;
38693;SDS011;24447;43.460;25.744;2023-07-09T13:59:17;5.50;;;2.35;;
38693;SDS011;24447;43.460;25.744;2023-07-09T14:01:52;13.88;;;2.35;;
38693;SDS011;24447;43.460;25.744;2023-07-09T14:04:21;5.05;;;2.42;;
38693;SDS011;24447;43.460;25.744;2023-07-09T14:06:47;4.05;;;2.63;;
38693;SDS011;24447;43.460;25.744;2023-07-09T14:09:14;3.05;;;2.30;;
38693;SDS011;24447;43.460;25.744;2023-07-09T14:11:47;9.93;;;3.83;;
38693;SDS011;24447;43.460;25.744;2023-07-09T14:16:48;3.70;;;2.22;;
38693;SDS011;24447;43.460;25.744;2023-07-09T14:19:16;8.82;;;3.13;;
38693;SDS011;24447;43.460;25.744;2023-07-09T14:21:44;7.13;;;2.60;;
38693;SDS011;24447;43.460;25.744;2023-07-09T14:26:39;4.10;;;2.67;;
38693;SDS011;24447;43.460;25.744;2023-07-09T14:29:07;6.57;;;3.30;;
38693;SDS011;24447;43.460;25.744;2023-07-09T14:31:33;7.72;;;2.33;;
38693;SDS011;24447;43.460;25.744;2023-07-09T14:34:10;6.60;;;2.83;;
38693;SDS011;24447;43.460;25.744;2023-07-09T14:36:41;4.78;;;2.50;;
38693;SDS011;24447;43.460;25.744;2023-07-09T14:39:09;4.32;;;2.45;;
38693;SDS011;24447;43.460;25.744;2023-07-09T14:41:35;5.00;;;2.30;;
38693;SDS011;24447;43.460;25.744;2023-07-09T14:44:01;4.28;;;2.42;;
38693;SDS011;24447;43.460;25.744;2023-07-09T14:46:27;5.97;;;2.58;;
38693;SDS011;24447;43.460;25.744;2023-07-09T14:48:53;5.32;;;2.42;;
38693;SDS011;24447;43.460;25.744;2023-07-09T14:51:19;6.05;;;2.22;;
38693;SDS011;24447;43.460;25.744;2023-07-09T14:53:45;5.30;;;2.30;;
38693;SDS011;24447;43.460;25.744;2023-07-09T14:56:12;3.25;;;2.60;;
38693;SDS011;24447;43.460;25.744;2023-07-09T14:58:39;4.55;;;2.70;;
38693;SDS011;24447;43.460;25.744;2023-07-09T15:01:09;2.90;;;2.10;;
38693;SDS011;24447;43.460;25.744;2023-07-09T15:03:37;4.15;;;2.15;;
38693;SDS011;24447;43.460;25.744;2023-07-09T15:06:03;4.82;;;2.60;;
38693;SDS011;24447;43.460;25.744;2023-07-09T15:08:28;3.83;;;2.20;;
38693;SDS011;24447;43.460;25.744;2023-07-09T15:10:54;6.38;;;2.80;;
38693;SDS011;24447;43.460;25.744;2023-07-09T15:13:29;4.40;;;2.15;;
38693;SDS011;24447;43.460;25.744;2023-07-09T15:15:56;5.55;;;2.70;;
38693;SDS011;24447;43.460;25.744;2023-07-09T15:18:24;6.05;;;2.92;;
38693;SDS011;24447;43.460;25.744;2023-07-09T15:20:54;12.57;;;3.67;;
38693;SDS011;24447;43.460;25.744;2023-07-09T15:23:21;11.55;;;4.43;;
38693;SDS011;24447;43.460;25.744;2023-07-09T15:25:48;16.80;;;5.53;;
38693;SDS011;24447;43.460;25.744;2023-07-09T15:28:15;11.05;;;4.40;;
38693;SDS011;24447;43.460;25.744;2023-07-09T15:30:41;9.95;;;3.30;;
38693;SDS011;24447;43.460;25.744;2023-07-09T15:33:11;4.82;;;2.67;;
38693;SDS011;24447;43.460;25.744;2023-07-09T15:35:40;8.15;;;2.50;;
38693;SDS011;24447;43.460;25.744;2023-07-09T15:38:20;7.50;;;3.10;;